メインページ
METAR-TAF:

METAR-TAF

空港 :

ベイルート, レバノン

緯度: 33-49N, 経度: 035-29E, 海抜: 29m

現時点の気象観測

当レポートは1時間6分前の04:00(UTC)に作成
南東の風 5kt
気温 22°C
湿度 57%
気圧 1016 hPa
視程: 7000m
高度2600ftの雲はほとんどない

METAR: OLBA 210400Z 14005KT 7000 FEW026 22/13 Q1016 NOSIG

時間: 08:06 (05:06 UTC)

予報

当レポートは7時間6分前の22:00(UTC)に作成
予報は21日の 00時(UTC)から 22日の 06時(UTC)まで有効
南/南西の風 10kt、南/南西から西/南西の間で変化する
視程: 8000m
高度2600ftの雲はほとんどない
21日の 03時(UTC)から 21日の 09時(UTC)まで一時的に
視程: 5000m
21日の 09時(UTC)から 21日の 12時(UTC)まで徐々に
変向風 2kt
高度2600ftの雲は散在している
22日の 00時(UTC)から 22日の 03時(UTC)まで徐々に
の風 5kt
21日の 18時(UTC)から 22日の 06時(UTC)まで一時的に
視程: 5000m

TAF: OLBA 202200Z 2100/2206 21010KT 200V250 8000 FEW026 TEMPO 2103/2109 5000 BR BECMG 2109/2112 VRB02KT SCT026 BECMG 2200/2203 17005KT TEMPO 2118/2206 5000 BR

4,000以上の空港の気象観測と天気予報(METAR報とTAF報)

利用可能な観測所は地図上に黄色い丸と赤い丸で示す。

丸の上にカーソルを重ねると観測所名を参照できる。

次にクリックすると気象観測と天気予報を参照できる。

マップの切り替え:黒色「×」印の緑ボタンをクリックして拡大、「-」印の緑ボタンをクリックして縮小、緑色の三角印をクリックして隣りの地図に切り替え


METAR-TAF: